createdAt,value
2018-04-10T00:01:08.521Z,48.46
2018-04-10T00:03:34.759Z,48.54
2018-04-10T00:06:01.403Z,48.56
2018-04-10T00:08:27.623Z,48.61
2018-04-10T00:10:53.830Z,48.62
2018-04-10T00:13:20.286Z,48.67
2018-04-10T00:15:46.453Z,48.67
2018-04-10T00:18:13.049Z,48.64
2018-04-10T00:20:39.218Z,48.69
2018-04-10T00:23:05.380Z,48.83
2018-04-10T00:25:31.577Z,48.90
2018-04-10T00:27:58.078Z,48.89
2018-04-10T00:30:24.297Z,48.93
2018-04-10T00:32:50.565Z,48.97
2018-04-10T00:35:16.763Z,49.04
2018-04-10T00:37:42.915Z,49.03
2018-04-10T00:40:09.448Z,49.04
2018-04-10T00:42:35.610Z,49.03
2018-04-10T00:45:02.070Z,49.14
2018-04-10T00:47:28.274Z,49.13
2018-04-10T00:49:54.424Z,48.96
2018-04-10T00:52:21.012Z,49.12
2018-04-10T00:54:47.212Z,49.09
2018-04-10T00:57:13.725Z,49.13
2018-04-10T00:59:40.353Z,49.14
2018-04-10T01:02:06.555Z,49.14
2018-04-10T01:04:32.694Z,49.08
2018-04-10T01:06:58.948Z,49.09
2018-04-10T01:09:25.172Z,49.08
2018-04-10T01:11:51.392Z,49.08
2018-04-10T01:14:17.562Z,49.08
2018-04-10T01:16:44.073Z,49.05
2018-04-10T01:19:10.333Z,49.08
2018-04-10T01:21:36.612Z,49.09
2018-04-10T01:24:02.804Z,49.07
2018-04-10T01:26:28.972Z,49.07
2018-04-10T01:28:55.185Z,49.15
2018-04-10T01:31:21.352Z,49.17
2018-04-10T01:33:47.879Z,49.22
2018-04-10T01:36:14.087Z,49.24
2018-04-10T01:38:40.237Z,49.38
2018-04-10T01:41:06.658Z,49.42
2018-04-10T01:43:32.856Z,49.41
2018-04-10T01:45:59.070Z,49.42
2018-04-10T01:48:25.655Z,49.45
2018-04-10T01:50:51.924Z,49.41
2018-04-10T01:53:18.069Z,49.41
2018-04-10T01:55:45.231Z,49.45
2018-04-10T01:58:11.708Z,49.48
2018-04-10T02:00:37.900Z,49.59
2018-04-10T02:03:04.122Z,49.66
2018-04-10T02:05:30.340Z,49.67
2018-04-10T02:07:56.564Z,49.71
2018-04-10T02:10:41.023Z,49.72
2018-04-10T02:13:07.585Z,49.77
2018-04-10T02:15:33.761Z,49.83
2018-04-10T02:17:59.931Z,49.85
2018-04-10T02:20:26.121Z,49.86
2018-04-10T02:22:52.331Z,49.92
2018-04-10T02:25:18.576Z,49.95
2018-04-10T02:27:44.740Z,49.89
2018-04-10T02:30:10.900Z,49.84
2018-04-10T02:32:37.141Z,49.81
2018-04-10T02:35:03.319Z,49.77
2018-04-10T02:37:29.552Z,49.81
2018-04-10T02:39:55.833Z,49.89
2018-04-10T02:42:22.081Z,50.10
2018-04-10T02:44:48.238Z,50.08
2018-04-10T02:47:14.471Z,50.10
2018-04-10T02:49:40.705Z,50.12
2018-04-10T02:52:06.874Z,50.09
2018-04-10T02:54:33.105Z,50.09
2018-04-10T02:56:59.315Z,50.09
2018-04-10T02:59:25.548Z,50.11
2018-04-10T03:01:51.769Z,50.15
2018-04-10T03:04:17.968Z,50.12
2018-04-10T03:06:44.213Z,50.30
2018-04-10T03:09:10.393Z,50.10
2018-04-10T03:11:36.559Z,50.15
2018-04-10T03:14:02.817Z,50.18
2018-04-10T03:16:28.985Z,50.17
2018-04-10T03:18:55.157Z,50.23
2018-04-10T03:21:21.365Z,50.29
2018-04-10T03:23:47.638Z,50.27
2018-04-10T03:26:13.864Z,50.30
2018-04-10T03:28:40.356Z,50.34
2018-04-10T03:31:06.546Z,50.43
2018-04-10T03:33:32.755Z,50.45
2018-04-10T03:35:58.933Z,50.54
2018-04-10T03:38:25.110Z,50.74
2018-04-10T03:40:51.346Z,50.82
2018-04-10T03:43:17.517Z,50.94
2018-04-10T03:45:43.717Z,50.89
2018-04-10T03:48:09.957Z,50.71
2018-04-10T03:50:36.122Z,50.56
2018-04-10T03:53:02.408Z,50.49
2018-04-10T03:55:28.617Z,50.40
2018-04-10T03:57:54.820Z,50.37
2018-04-10T04:00:21.067Z,50.38
2018-04-10T04:02:47.235Z,50.34
2018-04-10T04:05:13.405Z,50.35
2018-04-10T04:07:40.205Z,50.34
2018-04-10T04:10:06.379Z,50.37
2018-04-10T04:12:32.583Z,50.39
2018-04-10T04:14:58.790Z,50.35
2018-04-10T04:17:32.918Z,50.35
2018-04-10T04:20:11.352Z,50.33
2018-04-10T04:22:37.676Z,50.65
2018-04-10T04:25:03.900Z,50.60
2018-04-10T04:27:30.067Z,50.56
2018-04-10T04:29:56.532Z,50.57
2018-04-10T04:32:23.130Z,50.63
2018-04-10T04:34:49.359Z,50.89
2018-04-10T04:37:15.512Z,50.82
2018-04-10T04:39:41.778Z,50.57
2018-04-10T04:42:08.304Z,50.50
2018-04-10T04:44:34.478Z,50.49
2018-04-10T04:47:00.669Z,50.49
2018-04-10T04:49:27.193Z,50.44
2018-04-10T04:51:53.390Z,50.40
2018-04-10T04:54:19.616Z,50.28
2018-04-10T04:56:45.778Z,50.21
2018-04-10T04:59:11.940Z,50.10
2018-04-10T05:01:38.139Z,49.85
2018-04-10T05:04:04.449Z,49.65
2018-04-10T05:06:30.666Z,49.50
2018-04-10T05:08:56.852Z,49.34
2018-04-10T05:11:23.379Z,49.27
2018-04-10T05:13:49.575Z,49.14
2018-04-10T05:16:15.745Z,51.00
2018-04-10T05:18:41.973Z,50.99
2018-04-10T05:21:08.199Z,50.26
2018-04-10T05:23:34.680Z,49.85
2018-04-10T05:26:02.319Z,49.61
2018-04-10T05:28:28.548Z,49.47
2018-04-10T05:30:54.709Z,49.65
2018-04-10T05:33:20.894Z,49.66
2018-04-10T05:35:53.985Z,49.61
2018-04-10T05:38:20.549Z,49.56
2018-04-10T05:40:46.983Z,49.50
2018-04-10T05:43:13.157Z,49.45
2018-04-10T05:45:39.386Z,49.35
2018-04-10T05:48:05.883Z,49.34
2018-04-10T05:50:32.093Z,49.40
2018-04-10T05:52:58.308Z,49.32
2018-04-10T05:55:24.525Z,49.53
2018-04-10T05:57:50.701Z,49.38
2018-04-10T06:00:17.217Z,49.41
2018-04-10T06:02:43.468Z,49.37
2018-04-10T06:05:09.622Z,49.31
2018-04-10T06:07:35.812Z,49.13
2018-04-10T06:10:01.997Z,48.94
2018-04-10T06:12:28.472Z,48.81
2018-04-10T06:14:54.699Z,48.83
2018-04-10T06:17:21.524Z,48.77
2018-04-10T06:19:47.705Z,48.71
2018-04-10T06:22:13.877Z,48.67
2018-04-10T06:24:40.108Z,48.62
2018-04-10T06:27:06.542Z,48.58
2018-04-10T06:29:33.082Z,48.52
2018-04-10T06:31:59.305Z,48.43
2018-04-10T06:34:25.713Z,48.40
2018-04-10T06:36:51.865Z,48.33
2018-04-10T06:39:18.470Z,48.30
2018-04-10T06:41:44.629Z,48.22
2018-04-10T06:44:10.795Z,48.16
2018-04-10T06:46:37.296Z,48.11
2018-04-10T06:49:03.469Z,48.05
2018-04-10T06:51:29.712Z,47.98
2018-04-10T06:53:55.946Z,47.91
2018-04-10T06:56:22.157Z,47.87
2018-04-10T06:58:48.327Z,47.81
2018-04-10T07:01:14.523Z,47.75
2018-04-10T07:03:40.709Z,47.67
2018-04-10T07:06:06.920Z,47.62
2018-04-10T07:08:33.515Z,47.50
2018-04-10T07:10:59.703Z,47.49
2018-04-10T07:13:25.939Z,47.44
2018-04-10T07:15:52.172Z,47.37
2018-04-10T07:18:18.347Z,47.29
2018-04-10T07:20:44.516Z,47.25
2018-04-10T07:23:10.715Z,47.10
2018-04-10T07:25:36.917Z,47.02
2018-04-10T07:28:03.523Z,46.90
2018-04-10T07:30:29.946Z,46.78
2018-04-10T07:32:56.173Z,46.75
2018-04-10T07:35:22.367Z,46.71
2018-04-10T07:37:48.707Z,46.64
2018-04-10T07:40:14.874Z,46.61
2018-04-10T07:42:41.070Z,46.48
2018-04-10T07:45:07.355Z,46.44
2018-04-10T07:47:33.537Z,46.45
2018-04-10T07:49:59.751Z,46.42
2018-04-10T07:52:25.917Z,46.36
2018-04-10T07:54:52.127Z,46.25
2018-04-10T07:57:18.359Z,46.14
2018-04-10T07:59:44.514Z,46.04
2018-04-10T08:02:10.760Z,45.98
2018-04-10T08:04:36.927Z,46.00
2018-04-10T08:07:03.494Z,46.03
2018-04-10T08:09:29.668Z,46.02
2018-04-10T08:11:55.837Z,45.98
2018-04-10T08:14:22.091Z,45.95
2018-04-10T08:16:48.268Z,45.89
2018-04-10T08:19:14.506Z,45.81
2018-04-10T08:21:40.676Z,45.77
2018-04-10T08:24:06.952Z,45.74
2018-04-10T08:26:33.197Z,45.67
2018-04-10T08:28:59.368Z,45.63
2018-04-10T08:31:25.811Z,45.60
2018-04-10T08:33:52.092Z,45.58
2018-04-10T08:36:18.259Z,45.52
2018-04-10T08:38:44.427Z,45.51
2018-04-10T08:41:10.655Z,45.47
2018-04-10T08:43:37.162Z,45.39
2018-04-10T08:46:03.378Z,45.32
2018-04-10T08:48:29.918Z,45.29
2018-04-10T08:50:56.119Z,45.19
2018-04-10T08:53:22.294Z,45.14
2018-04-10T08:55:48.502Z,45.15
2018-04-10T08:58:14.709Z,45.10
2018-04-10T09:00:40.908Z,45.04
2018-04-10T09:03:07.168Z,45.02
2018-04-10T09:05:33.324Z,44.96
2018-04-10T09:07:59.484Z,44.94
2018-04-10T09:10:25.698Z,44.89
2018-04-10T09:12:51.878Z,44.83
2018-04-10T09:15:18.118Z,44.82
2018-04-10T09:17:44.277Z,44.74
2018-04-10T09:20:10.684Z,44.73
2018-04-10T09:22:36.877Z,44.72
2018-04-10T09:25:03.175Z,44.77
2018-04-10T09:27:29.341Z,44.75
2018-04-10T09:29:55.568Z,44.76
2018-04-10T09:32:21.851Z,44.79
2018-04-10T09:34:48.067Z,44.77
2018-04-10T09:37:14.481Z,44.81
2018-04-10T09:39:40.655Z,44.82
2018-04-10T09:42:06.813Z,44.84
2018-04-10T09:44:33.026Z,44.87
2018-04-10T09:46:59.190Z,44.87
2018-04-10T09:49:25.337Z,44.89
2018-04-10T09:51:51.857Z,44.88
2018-04-10T09:54:18.064Z,44.88
2018-04-10T09:56:44.260Z,44.88
2018-04-10T09:59:10.451Z,44.82
2018-04-10T10:01:36.641Z,44.76
2018-04-10T10:04:02.867Z,44.76
2018-04-10T10:06:29.938Z,44.75
2018-04-10T10:08:56.129Z,44.72
2018-04-10T10:11:22.329Z,44.70
2018-04-10T10:13:48.600Z,44.66
2018-04-10T10:16:14.774Z,44.59
2018-04-10T10:18:40.956Z,44.56
2018-04-10T10:21:07.103Z,44.77
2018-04-10T10:23:33.378Z,44.71
2018-04-10T10:25:59.592Z,44.57
2018-04-10T10:28:26.595Z,44.67
2018-04-10T10:30:52.795Z,44.64
2018-04-10T10:33:19.016Z,44.65
2018-04-10T10:35:45.210Z,44.64
2018-04-10T10:38:11.365Z,44.80
2018-04-10T10:40:37.581Z,45.06
2018-04-10T10:43:04.075Z,45.20
2018-04-10T10:45:30.254Z,45.16
2018-04-10T10:47:56.842Z,45.15
2018-04-10T10:50:23.100Z,45.09
2018-04-10T10:52:49.278Z,45.05
2018-04-10T10:55:15.580Z,45.09
2018-04-10T10:57:41.809Z,45.05
2018-04-10T11:00:08.933Z,44.99
2018-04-10T11:02:35.208Z,44.99
2018-04-10T11:05:01.670Z,44.97
2018-04-10T11:07:27.944Z,44.95
2018-04-10T11:09:54.424Z,44.89
2018-04-10T11:12:20.869Z,44.87
2018-04-10T11:14:47.069Z,44.70
2018-04-10T11:17:13.251Z,44.71
2018-04-10T11:19:39.413Z,44.57
2018-04-10T11:22:05.883Z,44.50
2018-04-10T11:24:32.042Z,44.40
2018-04-10T11:26:58.294Z,44.35
2018-04-10T11:29:24.440Z,44.26
2018-04-10T11:31:50.690Z,44.22
2018-04-10T11:34:17.229Z,44.18
2018-04-10T11:36:43.397Z,44.13
2018-04-10T11:39:09.936Z,44.09
2018-04-10T11:41:36.118Z,44.05
2018-04-10T11:44:02.308Z,44.00
2018-04-10T11:46:28.520Z,43.97
2018-04-10T11:48:54.676Z,43.90
2018-04-10T11:51:20.881Z,43.84
2018-04-10T11:53:47.084Z,43.80
2018-04-10T11:56:13.237Z,43.78
2018-04-10T11:58:39.726Z,43.79
2018-04-10T12:01:05.920Z,43.78
2018-04-10T12:03:32.105Z,43.72
2018-04-10T12:05:58.525Z,43.65
2018-04-10T12:08:24.766Z,43.58
2018-04-10T12:10:51.267Z,43.55
2018-04-10T12:13:17.432Z,43.52
2018-04-10T12:15:43.925Z,43.49
2018-04-10T12:18:10.133Z,43.42
2018-04-10T12:20:36.344Z,43.38
2018-04-10T12:23:02.495Z,43.37
2018-04-10T12:25:28.747Z,43.32
2018-04-10T12:27:55.063Z,43.30
2018-04-10T12:30:21.259Z,43.26
2018-04-10T12:32:47.580Z,43.25
2018-04-10T12:35:13.844Z,43.23
2018-04-10T12:37:40.391Z,43.21
2018-04-10T12:40:06.571Z,43.19
2018-04-10T12:42:32.813Z,43.16
2018-04-10T12:44:58.966Z,43.16
2018-04-10T12:47:25.136Z,43.14
2018-04-10T12:49:51.362Z,43.13
2018-04-10T12:52:17.538Z,43.10
2018-04-10T12:54:43.696Z,43.10
2018-04-10T12:57:09.877Z,43.09
2018-04-10T12:59:36.045Z,43.07
2018-04-10T13:02:02.244Z,43.28
2018-04-10T13:04:28.459Z,43.43
2018-04-10T13:06:54.700Z,43.35
2018-04-10T13:09:21.166Z,43.33
2018-04-10T13:11:47.595Z,43.24
2018-04-10T13:14:13.829Z,43.14
2018-04-10T13:16:40.341Z,43.06
2018-04-10T13:19:06.541Z,42.96
2018-04-10T13:21:33.308Z,42.94
2018-04-10T13:23:59.464Z,42.88
2018-04-10T13:26:25.610Z,42.82
2018-04-10T13:28:52.101Z,42.73
2018-04-10T13:31:18.257Z,42.62
2018-04-10T13:33:44.479Z,42.53
2018-04-10T13:36:10.720Z,42.46
2018-04-10T13:38:36.920Z,42.36
2018-04-10T13:41:03.144Z,42.24
2018-04-10T13:43:29.559Z,42.16
2018-04-10T13:45:55.762Z,42.07
2018-04-10T13:48:21.925Z,41.99
2018-04-10T13:50:48.249Z,41.92
2018-04-10T13:53:14.421Z,41.84
2018-04-10T13:55:40.661Z,41.81
2018-04-10T13:58:06.881Z,41.78
2018-04-10T14:00:33.090Z,41.73
2018-04-10T14:02:59.352Z,41.76
2018-04-10T14:05:25.643Z,41.82
2018-04-10T14:07:51.836Z,41.79
2018-04-10T14:10:18.042Z,41.72
2018-04-10T14:12:44.509Z,41.55
2018-04-10T14:15:10.948Z,41.44
2018-04-10T14:17:37.172Z,41.32
2018-04-10T14:20:03.327Z,41.24
2018-04-10T14:22:29.543Z,41.12
2018-04-10T14:24:55.742Z,40.97
2018-04-10T14:27:21.942Z,40.81
2018-04-10T14:29:48.169Z,40.66
2018-04-10T14:32:14.417Z,40.42
2018-04-10T14:34:40.633Z,40.07
2018-04-10T14:37:06.964Z,39.22
2018-04-10T14:39:33.190Z,37.57
2018-04-10T14:41:59.406Z,37.91
2018-04-10T14:44:25.639Z,37.18
2018-04-10T14:46:52.139Z,35.79
2018-04-10T14:49:18.368Z,35.26
2018-04-10T14:51:45.083Z,36.03
2018-04-10T14:54:11.510Z,34.96
2018-04-10T14:56:37.687Z,35.49
2018-04-10T14:59:03.872Z,36.33
2018-04-10T15:01:30.028Z,35.95
2018-04-10T15:03:56.264Z,35.67
2018-04-10T15:06:22.441Z,35.44
2018-04-10T15:08:48.621Z,34.59
2018-04-10T15:11:15.332Z,34.52
2018-04-10T15:13:41.499Z,34.52
2018-04-10T15:16:07.713Z,33.99
2018-04-10T15:18:34.326Z,33.63
2018-04-10T15:21:00.943Z,33.35
2018-04-10T15:23:27.144Z,33.29
2018-04-10T15:25:53.573Z,33.30
2018-04-10T15:28:20.036Z,33.20
2018-04-10T15:30:46.420Z,33.09
2018-04-10T15:33:12.619Z,33.02
2018-04-10T15:35:38.786Z,33.01
2018-04-10T15:38:05.098Z,33.03
2018-04-10T15:40:31.269Z,33.04
2018-04-10T15:42:57.573Z,33.11
2018-04-10T15:45:24.054Z,33.29
2018-04-10T15:47:50.290Z,33.79
2018-04-10T15:50:16.456Z,34.76
2018-04-10T15:52:42.648Z,36.70
2018-04-10T15:55:08.896Z,37.85
2018-04-10T15:57:35.320Z,38.06
2018-04-10T16:00:01.527Z,38.34
2018-04-10T16:02:27.736Z,38.29
2018-04-10T16:04:53.905Z,38.67
2018-04-10T16:07:20.113Z,39.04
2018-04-10T16:09:46.346Z,39.33
2018-04-10T16:12:12.515Z,39.72
2018-04-10T16:14:38.788Z,39.81
2018-04-10T16:17:04.961Z,39.81
2018-04-10T16:19:31.454Z,39.28
2018-04-10T16:21:57.795Z,38.74
2018-04-10T16:24:24.328Z,39.01
2018-04-10T16:26:50.533Z,39.38
2018-04-10T16:29:16.747Z,38.38
2018-04-10T16:31:43.301Z,38.05
2018-04-10T16:34:09.473Z,38.74
2018-04-10T16:36:35.640Z,39.21
2018-04-10T16:39:01.873Z,39.35
2018-04-10T16:41:28.069Z,39.60
2018-04-10T16:43:54.313Z,39.80
2018-04-10T16:46:20.579Z,39.95
2018-04-10T16:48:46.820Z,39.91
2018-04-10T16:51:13.040Z,40.10
2018-04-10T16:53:39.311Z,40.21
2018-04-10T16:56:05.532Z,40.27
2018-04-10T16:58:31.763Z,40.35
2018-04-10T17:00:57.923Z,40.41
2018-04-10T17:03:24.448Z,40.52
2018-04-10T17:05:50.591Z,40.62
2018-04-10T17:08:16.835Z,40.71
2018-04-10T17:10:43.068Z,40.81
2018-04-10T17:13:09.344Z,40.93
2018-04-10T17:15:35.572Z,41.09
2018-04-10T17:18:01.724Z,41.23
2018-04-10T17:20:27.935Z,41.40
2018-04-10T17:22:54.165Z,41.54
2018-04-10T17:25:20.344Z,41.74
2018-04-10T17:27:46.510Z,41.95
2018-04-10T17:30:12.952Z,42.12
2018-04-10T17:32:39.096Z,42.25
2018-04-10T17:35:05.315Z,42.38
2018-04-10T17:37:31.763Z,42.55
2018-04-10T17:39:58.001Z,42.81
2018-04-10T17:42:24.164Z,43.04
2018-04-10T17:44:50.656Z,43.23
2018-04-10T17:47:16.825Z,43.40
2018-04-10T17:49:42.990Z,43.61
2018-04-10T17:52:09.191Z,43.80
2018-04-10T17:54:35.401Z,43.97
2018-04-10T17:57:01.792Z,44.14
2018-04-10T17:59:28.016Z,44.34
2018-04-10T18:01:54.209Z,44.51
2018-04-10T18:04:20.380Z,44.65
2018-04-10T18:06:46.561Z,44.75
2018-04-10T18:09:12.733Z,44.86
2018-04-10T18:11:38.976Z,44.98
2018-04-10T18:14:05.142Z,45.01
2018-04-10T18:16:31.680Z,45.04
2018-04-10T18:18:59.920Z,45.15
2018-04-10T18:21:26.144Z,45.42
2018-04-10T18:23:52.329Z,45.62
2018-04-10T18:26:18.550Z,45.72
2018-04-10T18:28:44.775Z,45.76
2018-04-10T18:31:10.972Z,45.67
2018-04-10T18:33:37.299Z,45.85
2018-04-10T18:36:03.533Z,46.07
2018-04-10T18:38:29.736Z,46.22
2018-04-10T18:40:55.967Z,46.25
2018-04-10T18:43:22.164Z,46.30
2018-04-10T18:45:48.418Z,46.33
2018-04-10T18:48:14.575Z,46.36
2018-04-10T18:50:41.069Z,46.44
2018-04-10T18:53:07.247Z,46.58
2018-04-10T18:55:33.695Z,46.66
2018-04-10T18:57:59.880Z,46.76
2018-04-10T19:00:26.052Z,46.90
2018-04-10T19:02:52.225Z,46.88
2018-04-10T19:05:18.842Z,46.96
2018-04-10T19:07:45.028Z,46.96
2018-04-10T19:10:11.232Z,47.08
2018-04-10T19:12:37.454Z,47.08
2018-04-10T19:15:03.614Z,47.17
2018-04-10T19:17:29.787Z,47.15
2018-04-10T19:19:56.028Z,47.22
2018-04-10T19:22:22.185Z,47.36
2018-04-10T19:24:48.368Z,47.49
2018-04-10T19:27:14.556Z,47.55
2018-04-10T19:29:40.768Z,47.60
2018-04-10T19:32:06.962Z,47.67
2018-04-10T19:34:33.147Z,47.80
2018-04-10T19:36:59.604Z,47.78
2018-04-10T19:39:26.144Z,47.84
2018-04-10T19:41:52.366Z,47.80
2018-04-10T19:44:19.252Z,47.83
2018-04-10T19:46:45.644Z,47.88
2018-04-10T19:49:11.838Z,47.91
2018-04-10T19:51:38.072Z,48.10
2018-04-10T19:54:04.537Z,47.90
2018-04-10T19:56:30.721Z,47.87
2018-04-10T19:58:56.872Z,47.85
2018-04-10T20:01:23.056Z,47.85
2018-04-10T20:03:49.248Z,47.88
2018-04-10T20:06:15.462Z,47.95
2018-04-10T20:08:41.691Z,47.91
2018-04-10T20:11:07.907Z,47.98
2018-04-10T20:13:34.128Z,48.01
2018-04-10T20:16:00.329Z,48.01
2018-04-10T20:18:26.548Z,48.11
2018-04-10T20:20:52.745Z,48.08
2018-04-10T20:23:19.175Z,48.11
2018-04-10T20:25:45.380Z,48.12
2018-04-10T20:28:11.573Z,48.18
2018-04-10T20:30:37.803Z,48.18
2018-04-10T20:33:04.020Z,48.21
2018-04-10T20:35:30.181Z,48.21
2018-04-10T20:37:56.705Z,48.24
2018-04-10T20:40:22.874Z,48.28
2018-04-10T20:42:49.099Z,48.40
2018-04-10T20:45:15.352Z,48.37
2018-04-10T20:47:41.626Z,48.48
2018-04-10T20:50:08.181Z,48.46
2018-04-10T20:52:34.396Z,48.50
2018-04-10T20:55:00.646Z,48.53
2018-04-10T20:57:27.185Z,48.52
2018-04-10T20:59:53.719Z,48.46
2018-04-10T21:02:20.154Z,48.45
2018-04-10T21:04:46.404Z,48.47
2018-04-10T21:07:12.813Z,48.46
2018-04-10T21:09:39.399Z,48.51
2018-04-10T21:12:05.893Z,48.63
2018-04-10T21:14:32.317Z,48.83
2018-04-10T21:16:58.559Z,49.00
2018-04-10T21:19:24.979Z,49.30
2018-04-10T21:21:51.565Z,49.29
2018-04-10T21:24:18.053Z,49.30
2018-04-10T21:26:44.232Z,49.32
2018-04-10T21:29:10.422Z,49.58
2018-04-10T21:31:36.593Z,49.21
2018-04-10T21:34:02.776Z,49.20
2018-04-10T21:36:28.967Z,49.18
2018-04-10T21:38:55.258Z,49.25
2018-04-10T21:41:21.546Z,49.30
2018-04-10T21:43:47.870Z,49.29
2018-04-10T21:46:14.214Z,49.29
2018-04-10T21:48:40.383Z,49.28
2018-04-10T21:51:06.595Z,49.32
2018-04-10T21:53:32.770Z,49.35
2018-04-10T21:55:58.923Z,49.35
2018-04-10T21:58:25.487Z,49.49
2018-04-10T22:00:51.707Z,49.56
2018-04-10T22:03:17.872Z,49.46
2018-04-10T22:05:44.048Z,49.26
2018-04-10T22:08:10.270Z,49.16
2018-04-10T22:10:36.460Z,49.19
2018-04-10T22:13:02.688Z,49.20
2018-04-10T22:15:28.863Z,49.30
2018-04-10T22:17:55.036Z,49.31
2018-04-10T22:20:21.620Z,49.38
2018-04-10T22:22:48.164Z,49.43
2018-04-10T22:25:14.334Z,49.53
2018-04-10T22:27:40.982Z,49.62
2018-04-10T22:30:07.451Z,49.66
2018-04-10T22:32:33.841Z,49.71
2018-04-10T22:35:00.491Z,49.71
2018-04-10T22:37:26.913Z,49.80
2018-04-10T22:39:53.105Z,49.83
2018-04-10T22:42:19.329Z,49.81
2018-04-10T22:44:45.492Z,49.88
2018-04-10T22:47:11.694Z,49.94
2018-04-10T22:49:38.257Z,50.03
2018-04-10T22:52:04.472Z,50.09
2018-04-10T22:54:31.134Z,50.18
2018-04-10T22:56:57.311Z,50.19
2018-04-10T22:59:23.799Z,50.07
2018-04-10T23:01:50.382Z,50.05
2018-04-10T23:04:23.622Z,50.09
2018-04-10T23:06:49.826Z,50.10
2018-04-10T23:09:16.060Z,50.04
2018-04-10T23:11:42.620Z,50.05
2018-04-10T23:14:08.795Z,49.99
2018-04-10T23:16:35.039Z,50.01
2018-04-10T23:19:01.200Z,50.19
2018-04-10T23:21:27.860Z,50.28
2018-04-10T23:23:54.041Z,50.26
2018-04-10T23:26:20.267Z,50.28
2018-04-10T23:28:46.458Z,50.33
2018-04-10T23:31:12.643Z,50.51
2018-04-10T23:33:38.921Z,50.68
2018-04-10T23:36:05.454Z,50.84
2018-04-10T23:38:31.673Z,50.98
2018-04-10T23:40:58.019Z,51.03
2018-04-10T23:43:24.305Z,51.17
2018-04-10T23:45:50.763Z,51.22
2018-04-10T23:48:17.033Z,51.26
2018-04-10T23:50:43.236Z,51.36
2018-04-10T23:53:09.452Z,51.42
2018-04-10T23:55:36.038Z,51.49
2018-04-10T23:58:02.254Z,51.45
